createdAt,value
2023-01-11T00:00:17.926Z,72.84
2023-01-11T00:03:10.488Z,72.85
2023-01-11T00:05:43.763Z,72.87
2023-01-11T00:08:16.201Z,72.92
2023-01-11T00:10:48.610Z,72.85
2023-01-11T00:13:21.191Z,72.93
2023-01-11T00:15:53.445Z,73.03
2023-01-11T00:18:25.715Z,73.00
2023-01-11T00:20:57.892Z,73.03
2023-01-11T00:23:30.219Z,73.06
2023-01-11T00:26:05.555Z,73.06
2023-01-11T00:28:37.814Z,73.04
2023-01-11T00:31:10.617Z,73.19
2023-01-11T00:33:42.828Z,73.11
2023-01-11T00:36:15.030Z,73.16
2023-01-11T00:38:54.483Z,73.21
2023-01-11T00:41:44.152Z,73.13
2023-01-11T00:44:33.989Z,73.16
2023-01-11T00:47:23.538Z,73.19
2023-01-11T00:49:55.689Z,73.25
2023-01-11T00:52:27.861Z,73.19
2023-01-11T00:55:00.095Z,73.30
2023-01-11T00:57:32.384Z,73.33
2023-01-11T01:00:05.108Z,73.39
2023-01-11T01:02:37.559Z,73.36
2023-01-11T01:05:11.010Z,73.42
2023-01-11T01:07:43.427Z,73.43
2023-01-11T01:10:17.414Z,73.32
2023-01-11T01:13:07.241Z,73.47
2023-01-11T01:15:39.483Z,73.45
2023-01-11T01:18:11.679Z,73.53
2023-01-11T01:20:43.990Z,73.55
2023-01-11T01:23:16.135Z,73.62
2023-01-11T01:25:48.442Z,73.68
2023-01-11T01:28:22.407Z,73.67
2023-01-11T01:30:55.135Z,73.68
2023-01-11T01:33:27.397Z,73.27
2023-01-11T01:35:59.678Z,73.10
2023-01-11T01:38:31.894Z,73.03
2023-01-11T01:41:04.164Z,72.94
2023-01-11T01:43:52.262Z,73.18
2023-01-11T01:46:28.654Z,73.07
2023-01-11T01:49:06.066Z,73.15
2023-01-11T01:51:47.353Z,73.17
2023-01-11T01:54:24.168Z,73.05
2023-01-11T01:57:01.302Z,73.25
2023-01-11T01:59:35.144Z,73.46
2023-01-11T02:02:07.427Z,73.60
2023-01-11T02:04:43.888Z,73.73
2023-01-11T02:07:18.820Z,73.93
2023-01-11T02:09:57.015Z,73.96
2023-01-11T02:12:31.827Z,74.01
2023-01-11T02:15:06.048Z,74.15
2023-01-11T02:17:38.323Z,74.04
2023-01-11T02:20:23.788Z,74.17
2023-01-11T02:23:31.802Z,74.24
2023-01-11T02:26:31.018Z,74.38
2023-01-11T02:29:10.351Z,74.50
2023-01-11T02:31:48.692Z,74.46
2023-01-11T02:34:37.971Z,74.54
2023-01-11T02:37:20.665Z,74.56
2023-01-11T02:40:07.513Z,74.54
2023-01-11T02:43:07.341Z,74.73
2023-01-11T02:45:50.181Z,74.68
2023-01-11T02:48:30.348Z,74.76
2023-01-11T02:51:07.224Z,74.86
2023-01-11T02:53:45.116Z,74.94
2023-01-11T02:56:21.186Z,74.88
2023-01-11T02:58:55.796Z,75.05
2023-01-11T03:01:28.087Z,75.16
2023-01-11T03:04:00.424Z,75.24
2023-01-11T03:06:36.488Z,75.27
2023-01-11T03:09:26.616Z,75.32
2023-01-11T03:12:29.886Z,75.35
2023-01-11T03:15:13.313Z,75.48
2023-01-11T03:17:55.551Z,75.64
2023-01-11T03:20:32.290Z,75.59
2023-01-11T03:23:15.760Z,75.66
2023-01-11T03:25:57.456Z,75.58
2023-01-11T03:28:39.719Z,75.77
2023-01-11T03:31:19.640Z,75.82
2023-01-11T03:34:00.842Z,75.89
2023-01-11T03:36:40.944Z,76.09
2023-01-11T03:39:20.162Z,76.11
2023-01-11T03:41:57.403Z,76.11
2023-01-11T03:44:35.127Z,76.11
2023-01-11T03:47:12.244Z,76.16
2023-01-11T03:49:47.793Z,76.22
2023-01-11T03:52:26.289Z,76.21
2023-01-11T03:55:00.641Z,76.33
2023-01-11T03:57:37.693Z,76.47
2023-01-11T04:00:12.740Z,76.62
2023-01-11T04:02:45.172Z,76.65
2023-01-11T04:05:17.647Z,76.81
2023-01-11T04:07:49.850Z,76.87
2023-01-11T04:10:22.280Z,76.82
2023-01-11T04:12:54.521Z,76.80
2023-01-11T04:15:26.816Z,76.89
2023-01-11T04:18:05.015Z,76.88
2023-01-11T04:20:38.352Z,76.95
2023-01-11T04:23:11.446Z,77.02
2023-01-11T04:25:43.689Z,77.24
2023-01-11T04:28:16.031Z,77.24
2023-01-11T04:30:48.202Z,77.31
2023-01-11T04:33:20.369Z,77.33
2023-01-11T04:35:52.567Z,77.44
2023-01-11T04:38:26.456Z,77.46
2023-01-11T04:41:12.397Z,77.58
2023-01-11T04:43:44.653Z,78.14
2023-01-11T04:46:16.871Z,77.90
2023-01-11T04:48:49.513Z,78.17
2023-01-11T04:51:21.729Z,78.03
2023-01-11T04:53:53.917Z,77.90
2023-01-11T04:56:26.060Z,77.87
2023-01-11T04:58:58.608Z,78.20
2023-01-11T05:01:30.789Z,78.37
2023-01-11T05:04:03.193Z,78.46
2023-01-11T05:06:35.459Z,78.15
2023-01-11T05:09:08.256Z,78.24
2023-01-11T05:11:40.503Z,78.40
2023-01-11T05:14:12.929Z,78.25
2023-01-11T05:16:45.756Z,78.71
2023-01-11T05:19:18.848Z,78.57
2023-01-11T05:21:51.114Z,78.38
2023-01-11T05:24:23.326Z,78.45
2023-01-11T05:26:55.594Z,78.37
2023-01-11T05:29:28.710Z,78.53
2023-01-11T05:32:01.107Z,78.53
2023-01-11T05:34:33.440Z,78.91
2023-01-11T05:37:05.745Z,78.86
2023-01-11T05:39:38.078Z,78.80
2023-01-11T05:42:10.322Z,78.90
2023-01-11T05:45:00.112Z,79.24
2023-01-11T05:47:32.346Z,79.18
2023-01-11T05:50:04.804Z,78.95
2023-01-11T05:52:37.031Z,78.84
2023-01-11T05:55:11.432Z,79.30
2023-01-11T05:57:45.570Z,79.10
2023-01-11T06:00:19.578Z,79.34
2023-01-11T06:02:51.909Z,79.18
2023-01-11T06:05:24.463Z,79.04
2023-01-11T06:07:58.358Z,79.23
2023-01-11T06:10:30.629Z,79.65
2023-01-11T06:13:16.730Z,79.48
2023-01-11T06:15:48.981Z,79.34
2023-01-11T06:18:21.523Z,79.41
2023-01-11T06:20:55.541Z,79.54
2023-01-11T06:23:29.357Z,79.50
2023-01-11T06:26:03.925Z,79.71
2023-01-11T06:28:36.128Z,79.52
2023-01-11T06:31:09.315Z,79.54
2023-01-11T06:33:41.599Z,79.56
2023-01-11T06:36:15.211Z,79.61
2023-01-11T06:38:47.613Z,79.76
2023-01-11T06:41:19.941Z,80.06
2023-01-11T06:43:53.487Z,79.78
2023-01-11T06:46:28.232Z,79.83
2023-01-11T06:49:02.794Z,79.82
2023-01-11T06:51:34.998Z,79.97
2023-01-11T06:54:07.185Z,80.08
2023-01-11T06:56:39.450Z,80.10
2023-01-11T06:59:11.698Z,80.26
2023-01-11T07:01:43.966Z,80.08
2023-01-11T07:04:17.269Z,80.25
2023-01-11T07:06:49.459Z,80.29
2023-01-11T07:09:21.680Z,80.34
2023-01-11T07:11:53.854Z,80.21
2023-01-11T07:14:26.010Z,80.31
2023-01-11T07:16:58.472Z,80.25
2023-01-11T07:19:30.749Z,80.26
2023-01-11T07:22:03.013Z,80.09
2023-01-11T07:24:35.213Z,80.35
2023-01-11T07:27:07.457Z,80.28
2023-01-11T07:29:39.746Z,80.16
2023-01-11T07:32:12.151Z,80.16
2023-01-11T07:34:44.369Z,80.15
2023-01-11T07:37:28.591Z,80.07
2023-01-11T07:40:01.549Z,80.22
2023-01-11T07:42:51.571Z,80.21
2023-01-11T07:45:27.053Z,80.43
2023-01-11T07:48:01.395Z,80.32
2023-01-11T07:50:33.941Z,80.19
2023-01-11T07:53:06.153Z,80.06
2023-01-11T07:55:40.015Z,80.01
2023-01-11T07:58:14.275Z,80.04
2023-01-11T08:00:47.029Z,79.90
2023-01-11T08:03:19.380Z,79.76
2023-01-11T08:05:54.362Z,79.74
2023-01-11T08:08:26.547Z,79.75
2023-01-11T08:11:12.528Z,79.64
2023-01-11T08:14:02.324Z,79.69
2023-01-11T08:16:34.727Z,79.59
2023-01-11T08:19:07.345Z,79.57
2023-01-11T08:21:39.637Z,79.31
2023-01-11T08:24:11.955Z,79.12
2023-01-11T08:26:44.286Z,78.94
2023-01-11T08:29:16.856Z,78.72
2023-01-11T08:31:49.425Z,78.81
2023-01-11T08:34:21.886Z,78.46
2023-01-11T08:36:54.116Z,78.46
2023-01-11T08:39:28.485Z,78.50
2023-01-11T08:42:01.201Z,78.27
2023-01-11T08:44:34.480Z,78.28
2023-01-11T08:47:07.657Z,78.36
2023-01-11T08:49:43.025Z,78.13
2023-01-11T08:52:17.001Z,78.32
2023-01-11T08:54:49.168Z,78.21
2023-01-11T08:57:21.360Z,78.24
2023-01-11T08:59:53.558Z,78.31
2023-01-11T09:02:25.868Z,78.29
2023-01-11T09:04:58.087Z,78.34
2023-01-11T09:07:30.263Z,78.34
2023-01-11T09:10:02.545Z,78.35
2023-01-11T09:12:34.945Z,78.10
2023-01-11T09:15:09.758Z,78.22
2023-01-11T09:17:42.052Z,78.44
2023-01-11T09:20:15.346Z,78.38
2023-01-11T09:22:52.934Z,78.20
2023-01-11T09:25:25.504Z,78.22
2023-01-11T09:27:57.835Z,78.17
2023-01-11T09:30:31.277Z,78.10
2023-01-11T09:33:05.093Z,78.28
2023-01-11T09:35:41.903Z,78.06
2023-01-11T09:38:14.219Z,77.85
2023-01-11T09:40:56.036Z,77.99
2023-01-11T09:43:31.067Z,77.90
2023-01-11T09:46:11.915Z,77.97
2023-01-11T09:48:49.397Z,78.00
2023-01-11T09:51:23.145Z,77.84
2023-01-11T09:53:57.459Z,77.94
2023-01-11T09:56:36.718Z,78.13
2023-01-11T09:59:20.329Z,77.92
2023-01-11T10:01:59.881Z,77.61
2023-01-11T10:04:47.657Z,77.76
2023-01-11T10:07:40.247Z,77.84
2023-01-11T10:18:32.376Z,77.33
2023-01-11T10:19:40.825Z,77.61
2023-01-11T10:22:19.103Z,77.11
2023-01-11T10:24:56.520Z,77.00
2023-01-11T10:27:35.839Z,76.99
2023-01-11T10:30:33.539Z,76.96
2023-01-11T10:33:25.087Z,77.26
2023-01-11T10:36:19.151Z,77.22
2023-01-11T10:39:11.187Z,77.20
2023-01-11T10:41:55.137Z,77.18
2023-01-11T10:44:35.994Z,77.15
2023-01-11T10:47:16.577Z,77.41
2023-01-11T10:49:55.586Z,76.77
2023-01-11T10:52:35.610Z,76.83
2023-01-11T10:55:17.845Z,77.04
2023-01-11T10:58:03.985Z,76.99
2023-01-11T11:00:44.831Z,77.21
2023-01-11T11:03:43.560Z,76.95
2023-01-11T11:06:25.243Z,76.96
2023-01-11T11:09:05.559Z,77.08
2023-01-11T11:11:47.137Z,76.77
2023-01-11T11:14:27.551Z,76.60
2023-01-11T11:17:08.376Z,76.58
2023-01-11T11:19:41.977Z,76.71
2023-01-11T11:22:15.219Z,76.73
2023-01-11T11:24:51.025Z,76.91
2023-01-11T11:27:30.230Z,76.99
2023-01-11T11:30:03.499Z,77.07
2023-01-11T11:32:39.279Z,77.12
2023-01-11T11:35:30.359Z,76.81
2023-01-11T11:38:03.288Z,76.76
2023-01-11T11:40:37.995Z,76.78
2023-01-11T11:43:25.139Z,77.01
2023-01-11T11:45:59.888Z,76.95
2023-01-11T11:48:34.443Z,77.04
2023-01-11T11:51:11.421Z,76.82
2023-01-11T11:53:48.270Z,76.95
2023-01-11T11:56:25.445Z,76.96
2023-01-11T11:58:59.243Z,76.82
2023-01-11T12:01:34.799Z,76.75
2023-01-11T12:04:16.349Z,76.80
2023-01-11T12:06:54.975Z,76.92
2023-01-11T12:09:32.614Z,77.03
2023-01-11T12:12:06.559Z,77.12
2023-01-11T12:14:39.003Z,76.85
2023-01-11T12:17:26.124Z,76.69
2023-01-11T12:19:58.435Z,76.89
2023-01-11T12:22:31.329Z,76.94
2023-01-11T12:25:21.647Z,76.93
2023-01-11T12:28:03.490Z,76.83
2023-01-11T12:30:45.717Z,76.91
2023-01-11T12:33:38.090Z,77.05
2023-01-11T12:36:21.449Z,76.91
2023-01-11T12:39:05.286Z,76.91
2023-01-11T12:42:00.395Z,76.98
2023-01-11T12:44:48.891Z,77.03
2023-01-11T12:47:55.360Z,76.99
2023-01-11T12:50:31.832Z,76.87
2023-01-11T12:53:22.091Z,76.85
2023-01-11T12:56:23.571Z,76.77
2023-01-11T12:59:03.799Z,76.83
2023-01-11T13:01:49.789Z,76.80
2023-01-11T13:04:53.907Z,76.81
2023-01-11T13:07:48.693Z,76.72
2023-01-11T13:10:32.359Z,76.81
2023-01-11T13:13:13.814Z,76.91
2023-01-11T13:15:55.768Z,76.85
2023-01-11T13:18:37.738Z,76.64
2023-01-11T13:21:19.713Z,76.75
2023-01-11T13:23:55.615Z,76.70
2023-01-11T13:26:29.265Z,76.89
2023-01-11T13:29:04.646Z,76.93
2023-01-11T13:31:37.979Z,76.74
2023-01-11T13:34:18.804Z,76.89
2023-01-11T13:36:54.875Z,76.78
2023-01-11T13:39:38.816Z,76.66
2023-01-11T13:42:18.469Z,76.75
2023-01-11T13:44:56.065Z,76.80
2023-01-11T13:47:32.631Z,76.85
2023-01-11T13:50:12.579Z,76.88
2023-01-11T13:52:55.424Z,76.88
2023-01-11T13:55:33.919Z,76.91
2023-01-11T13:58:13.331Z,76.74
2023-01-11T14:00:52.544Z,77.01
2023-01-11T14:03:30.213Z,76.89
2023-01-11T14:06:26.460Z,76.94
2023-01-11T14:09:12.910Z,76.88
2023-01-11T14:11:53.772Z,76.89
2023-01-11T14:14:42.629Z,77.11
2023-01-11T14:17:54.192Z,76.95
2023-01-11T14:20:36.637Z,76.98
2023-01-11T14:23:14.361Z,76.97
2023-01-11T14:26:02.121Z,77.12
2023-01-11T14:28:52.670Z,77.14
2023-01-11T14:31:49.000Z,77.09
2023-01-11T14:34:51.837Z,77.01
2023-01-11T14:38:01.185Z,77.08
2023-01-11T14:41:05.606Z,77.00
2023-01-11T14:44:02.291Z,77.01
2023-01-11T14:47:03.251Z,76.83
2023-01-11T14:49:51.972Z,77.20
2023-01-11T14:52:39.183Z,77.10
2023-01-11T14:55:23.880Z,77.17
2023-01-11T14:58:18.378Z,77.18
2023-01-11T15:01:11.960Z,76.92
2023-01-11T15:03:56.557Z,77.17
2023-01-11T15:06:50.239Z,77.01
2023-01-11T15:09:46.077Z,77.26
2023-01-11T15:12:20.662Z,77.24
2023-01-11T15:14:57.774Z,77.13
2023-01-11T15:17:48.834Z,76.91
2023-01-11T15:20:23.169Z,76.71
2023-01-11T15:23:01.725Z,77.10
2023-01-11T15:25:36.043Z,77.17
2023-01-11T15:28:36.778Z,76.85
2023-01-11T15:31:28.893Z,76.96
2023-01-11T15:34:05.063Z,77.08
2023-01-11T15:37:10.717Z,77.07
2023-01-11T15:39:50.031Z,76.96
2023-01-11T15:43:07.971Z,76.97
2023-01-11T15:46:28.886Z,76.69
2023-01-11T15:49:33.331Z,77.02
2023-01-11T15:52:31.281Z,76.96
2023-01-11T15:55:52.097Z,76.61
2023-01-11T15:59:03.375Z,76.67
2023-01-11T16:01:49.186Z,77.06
2023-01-11T16:04:30.416Z,76.78
2023-01-11T16:07:12.954Z,76.92
2023-01-11T16:10:15.129Z,76.72
2023-01-11T16:13:04.558Z,76.86
2023-01-11T16:15:58.374Z,76.82
2023-01-11T16:18:36.067Z,76.78
2023-01-11T16:21:12.905Z,77.10
2023-01-11T16:23:46.266Z,76.86
2023-01-11T16:26:23.153Z,77.16
2023-01-11T16:28:59.393Z,76.72
2023-01-11T16:31:55.978Z,76.87
2023-01-11T16:34:29.979Z,76.63
2023-01-11T16:37:02.317Z,76.82
2023-01-11T16:39:36.118Z,76.89
2023-01-11T16:42:12.150Z,76.98
2023-01-11T16:44:53.006Z,76.67
2023-01-11T16:47:25.463Z,76.93
2023-01-11T16:50:21.573Z,76.84
2023-01-11T16:52:55.739Z,77.09
2023-01-11T16:55:32.659Z,76.83
2023-01-11T16:58:08.031Z,76.76
2023-01-11T17:00:41.326Z,76.80
2023-01-11T17:03:25.465Z,76.94
2023-01-11T17:06:18.772Z,77.10
2023-01-11T17:08:53.361Z,76.66
2023-01-11T17:11:30.543Z,76.76
2023-01-11T17:14:25.748Z,76.93
2023-01-11T17:17:01.412Z,77.02
2023-01-11T17:19:36.962Z,76.87
2023-01-11T17:22:16.814Z,77.02
2023-01-11T17:24:53.623Z,76.81
2023-01-11T17:27:30.141Z,76.95
2023-01-11T17:30:03.912Z,76.93
2023-01-11T17:32:39.994Z,76.95
2023-01-11T17:35:17.029Z,77.05
2023-01-11T17:37:52.622Z,76.75
2023-01-11T17:40:29.637Z,76.68
2023-01-11T17:43:22.704Z,76.91
2023-01-11T17:45:57.780Z,76.62
2023-01-11T17:48:31.072Z,76.82
2023-01-11T17:51:05.334Z,76.60
2023-01-11T17:53:40.156Z,76.51
2023-01-11T17:56:39.242Z,76.71
2023-01-11T17:59:21.573Z,76.52
2023-01-11T18:01:57.711Z,76.59
2023-01-11T18:04:31.468Z,76.64
2023-01-11T18:07:14.534Z,76.73
2023-01-11T18:09:49.286Z,76.50
2023-01-11T18:12:24.661Z,76.77
2023-01-11T18:14:59.634Z,76.78
2023-01-11T18:17:38.977Z,76.74
2023-01-11T18:20:35.705Z,76.55
2023-01-11T18:23:20.906Z,76.65
2023-01-11T18:26:13.143Z,76.40
2023-01-11T18:28:45.520Z,76.52
2023-01-11T18:31:17.697Z,76.67
2023-01-11T18:33:50.132Z,76.43
2023-01-11T18:36:26.149Z,76.44
2023-01-11T18:38:56.724Z,76.58
2023-01-11T18:41:46.502Z,76.38
2023-01-11T18:44:18.700Z,76.56
2023-01-11T18:46:51.787Z,76.42
2023-01-11T18:49:23.966Z,76.53
2023-01-11T18:51:56.253Z,76.52
2023-01-11T18:54:28.393Z,76.45
2023-01-11T18:57:00.531Z,76.43
2023-01-11T18:59:32.754Z,76.28
2023-01-11T19:02:17.281Z,76.61
2023-01-11T19:04:50.199Z,76.59
2023-01-11T19:07:23.163Z,76.58
2023-01-11T19:09:56.239Z,76.66
2023-01-11T19:12:28.824Z,76.64
2023-01-11T19:15:01.071Z,76.62
2023-01-11T19:17:34.483Z,76.49
2023-01-11T19:20:09.235Z,76.49
2023-01-11T19:22:41.996Z,76.85
2023-01-11T19:25:14.406Z,76.74
2023-01-11T19:27:46.620Z,76.16
2023-01-11T19:30:19.397Z,76.76
2023-01-11T19:32:55.014Z,76.72
2023-01-11T19:35:27.201Z,76.72
2023-01-11T19:37:59.453Z,76.48
2023-01-11T19:40:31.658Z,76.42
2023-01-11T19:43:03.848Z,76.40
2023-01-11T19:45:36.088Z,76.91
2023-01-11T19:48:09.246Z,76.77
2023-01-11T19:50:41.409Z,76.71
2023-01-11T19:53:13.680Z,76.52
2023-01-11T19:55:46.100Z,76.58
2023-01-11T19:58:18.282Z,76.35
2023-01-11T20:00:50.534Z,76.35
2023-01-11T20:03:22.810Z,76.24
2023-01-11T20:05:55.008Z,76.45
2023-01-11T20:08:27.222Z,76.29
2023-01-11T20:11:04.933Z,76.55
2023-01-11T20:13:37.336Z,76.40
2023-01-11T20:16:13.210Z,76.60
2023-01-11T20:18:43.771Z,76.65
2023-01-11T20:21:15.945Z,76.80
2023-01-11T20:23:48.399Z,76.61
2023-01-11T20:26:20.839Z,76.75
2023-01-11T20:28:56.686Z,76.81
2023-01-11T20:31:32.360Z,76.49
2023-01-11T20:34:07.156Z,76.52
2023-01-11T20:36:39.823Z,76.39
2023-01-11T20:39:13.207Z,76.53
2023-01-11T20:41:48.945Z,76.46
2023-01-11T20:44:24.016Z,76.63
2023-01-11T20:46:57.609Z,76.84
2023-01-11T20:49:30.919Z,76.90
2023-01-11T20:52:03.331Z,76.73
2023-01-11T20:54:37.135Z,76.51
2023-01-11T20:57:12.730Z,76.60
2023-01-11T20:59:44.999Z,76.49
2023-01-11T21:02:17.230Z,76.31
2023-01-11T21:04:49.408Z,76.71
2023-01-11T21:07:21.599Z,76.69
2023-01-11T21:09:53.787Z,76.83
2023-01-11T21:12:26.303Z,76.65
2023-01-11T21:14:58.464Z,76.45
2023-01-11T21:17:30.640Z,76.80
2023-01-11T21:20:02.841Z,76.59
2023-01-11T21:22:35.066Z,76.62
2023-01-11T21:25:08.921Z,76.58
2023-01-11T21:27:41.117Z,76.69
2023-01-11T21:30:14.593Z,76.61
2023-01-11T21:32:46.813Z,76.50
2023-01-11T21:35:19.293Z,76.50
2023-01-11T21:37:51.461Z,76.70
2023-01-11T21:40:24.161Z,76.46
2023-01-11T21:42:56.315Z,76.70
2023-01-11T21:45:28.917Z,76.66
2023-01-11T21:48:01.105Z,76.46
2023-01-11T21:50:33.299Z,76.37
2023-01-11T21:53:05.581Z,76.36
2023-01-11T21:55:37.748Z,76.84
2023-01-11T21:58:09.972Z,76.69
2023-01-11T22:00:42.188Z,76.42
2023-01-11T22:03:14.737Z,76.64
2023-01-11T22:05:46.920Z,76.65
2023-01-11T22:08:19.087Z,76.67
2023-01-11T22:11:00.590Z,76.52
2023-01-11T22:13:33.979Z,76.75
2023-01-11T22:16:08.929Z,76.66
2023-01-11T22:18:41.834Z,76.53
2023-01-11T22:21:17.459Z,76.53
2023-01-11T22:23:53.959Z,76.40
2023-01-11T22:26:27.274Z,76.35
2023-01-11T22:29:15.916Z,76.63
2023-01-11T22:31:51.379Z,76.55
2023-01-11T22:34:24.650Z,76.51
2023-01-11T22:36:57.097Z,76.77
2023-01-11T22:39:30.316Z,76.23
2023-01-11T22:42:04.926Z,76.71
2023-01-11T22:44:37.152Z,76.54
2023-01-11T22:47:09.398Z,76.39
2023-01-11T22:49:41.615Z,76.51
2023-01-11T22:52:13.799Z,76.26
2023-01-11T22:54:45.971Z,76.43
2023-01-11T22:57:18.356Z,76.44
2023-01-11T22:59:50.581Z,76.67
2023-01-11T23:02:22.772Z,76.47
2023-01-11T23:04:55.100Z,76.37
2023-01-11T23:07:27.209Z,76.31
2023-01-11T23:09:59.482Z,76.25
2023-01-11T23:12:49.116Z,76.43
2023-01-11T23:15:21.402Z,76.42
2023-01-11T23:17:53.610Z,76.35
2023-01-11T23:20:25.908Z,76.68
2023-01-11T23:22:58.192Z,76.43
2023-01-11T23:25:30.468Z,76.56
2023-01-11T23:28:03.019Z,76.82
2023-01-11T23:30:35.251Z,76.32
2023-01-11T23:33:07.505Z,76.80
2023-01-11T23:35:40.526Z,76.52
2023-01-11T23:38:12.724Z,76.43
2023-01-11T23:40:58.889Z,76.33
2023-01-11T23:43:31.077Z,76.57
2023-01-11T23:46:26.602Z,76.40
2023-01-11T23:48:58.833Z,76.41
2023-01-11T23:51:31.114Z,76.72
2023-01-11T23:54:04.656Z,76.53
2023-01-11T23:56:38.029Z,76.66
2023-01-11T23:59:10.991Z,76.46
